sensor_id;sensor_type;location;lat;lon;timestamp;pressure;altitude;pressure_sealevel;temperature;humidity
23953;BME280;12163;49.316;6.092;2024-02-28T00:00:40;99649.59;;;7.23;72.40
23953;BME280;12163;49.316;6.092;2024-02-28T00:03:07;99652.28;;;7.23;72.62
23953;BME280;12163;49.316;6.092;2024-02-28T00:05:34;99649.34;;;7.24;72.78
23953;BME280;12163;49.316;6.092;2024-02-28T00:08:00;99645.84;;;7.24;72.56
23953;BME280;12163;49.316;6.092;2024-02-28T00:10:27;99646.88;;;7.18;72.92
23953;BME280;12163;49.316;6.092;2024-02-28T00:12:53;99642.06;;;7.20;73.15
23953;BME280;12163;49.316;6.092;2024-02-28T00:15:20;99652.28;;;7.23;72.95
23953;BME280;12163;49.316;6.092;2024-02-28T00:17:47;99656.31;;;7.25;72.88
23953;BME280;12163;49.316;6.092;2024-02-28T00:20:13;99654.94;;;7.23;72.59
23953;BME280;12163;49.316;6.092;2024-02-28T00:22:40;99650.66;;;7.22;72.34
23953;BME280;12163;49.316;6.092;2024-02-28T00:25:08;99649.88;;;7.21;72.51
23953;BME280;12163;49.316;6.092;2024-02-28T00:27:37;99657.34;;;7.19;72.60
23953;BME280;12163;49.316;6.092;2024-02-28T00:30:04;99659.22;;;7.14;72.60
23953;BME280;12163;49.316;6.092;2024-02-28T00:32:33;99661.84;;;7.09;72.71
23953;BME280;12163;49.316;6.092;2024-02-28T00:34:59;99663.44;;;7.05;72.52
23953;BME280;12163;49.316;6.092;2024-02-28T00:37:26;99669.34;;;7.07;73.50
23953;BME280;12163;49.316;6.092;2024-02-28T00:39:53;99666.94;;;7.05;73.72
23953;BME280;12163;49.316;6.092;2024-02-28T00:42:20;99667.22;;;7.09;73.62
23953;BME280;12163;49.316;6.092;2024-02-28T00:44:46;99669.13;;;7.13;73.17
23953;BME280;12163;49.316;6.092;2024-02-28T00:47:13;99672.34;;;7.15;72.66
23953;BME280;12163;49.316;6.092;2024-02-28T00:49:39;99678.50;;;7.11;72.52
23953;BME280;12163;49.316;6.092;2024-02-28T00:52:06;99672.03;;;7.07;72.76
23953;BME280;12163;49.316;6.092;2024-02-28T00:54:33;99677.16;;;7.08;72.81
23953;BME280;12163;49.316;6.092;2024-02-28T00:56:59;99683.31;;;7.09;72.53
23953;BME280;12163;49.316;6.092;2024-02-28T00:59:26;99679.28;;;7.06;72.27
23953;BME280;12163;49.316;6.092;2024-02-28T01:01:53;99688.09;;;7.02;72.70
23953;BME280;12163;49.316;6.092;2024-02-28T01:04:19;99688.63;;;6.99;72.77
23953;BME280;12163;49.316;6.092;2024-02-28T01:06:46;99691.28;;;6.94;72.70
23953;BME280;12163;49.316;6.092;2024-02-28T01:09:13;99693.41;;;6.92;73.03
23953;BME280;12163;49.316;6.092;2024-02-28T01:11:39;99688.28;;;6.90;72.77
23953;BME280;12163;49.316;6.092;2024-02-28T01:14:06;99696.09;;;6.92;72.83
23953;BME280;12163;49.316;6.092;2024-02-28T01:16:33;99700.13;;;6.94;73.01
23953;BME280;12163;49.316;6.092;2024-02-28T01:18:59;99700.19;;;6.99;73.03
23953;BME280;12163;49.316;6.092;2024-02-28T01:21:26;99698.31;;;7.05;73.07
23953;BME280;12163;49.316;6.092;2024-02-28T01:23:53;99702.94;;;7.14;72.56
23953;BME280;12163;49.316;6.092;2024-02-28T01:26:19;99698.41;;;7.20;72.80
23953;BME280;12163;49.316;6.092;2024-02-28T01:28:50;99704.88;;;7.24;72.31
23953;BME280;12163;49.316;6.092;2024-02-28T01:31:16;99697.13;;;7.27;72.25
23953;BME280;12163;49.316;6.092;2024-02-28T01:33:43;99694.16;;;7.29;71.86
23953;BME280;12163;49.316;6.092;2024-02-28T01:36:11;99703.59;;;7.31;71.87
23953;BME280;12163;49.316;6.092;2024-02-28T01:38:38;99691.53;;;7.34;71.88
23953;BME280;12163;49.316;6.092;2024-02-28T01:41:04;99700.69;;;7.38;71.55
23953;BME280;12163;49.316;6.092;2024-02-28T01:43:32;99694.22;;;7.39;72.20
23953;BME280;12163;49.316;6.092;2024-02-28T01:46:01;99690.47;;;7.40;71.82
23953;BME280;12163;49.316;6.092;2024-02-28T01:48:29;99697.72;;;7.39;72.00
23953;BME280;12163;49.316;6.092;2024-02-28T01:50:56;99700.41;;;7.39;72.02
23953;BME280;12163;49.316;6.092;2024-02-28T01:53:23;99706.06;;;7.43;72.06
23953;BME280;12163;49.316;6.092;2024-02-28T01:55:50;99702.31;;;7.44;72.08
23953;BME280;12163;49.316;6.092;2024-02-28T01:58:18;99698.84;;;7.48;71.96
23953;BME280;12163;49.316;6.092;2024-02-28T02:00:45;99705.00;;;7.49;71.95
23953;BME280;12163;49.316;6.092;2024-02-28T02:03:13;99700.19;;;7.51;71.90
23953;BME280;12163;49.316;6.092;2024-02-28T02:05:41;99698.03;;;7.48;71.94
23953;BME280;12163;49.316;6.092;2024-02-28T02:08:09;99704.75;;;7.45;72.23
23953;BME280;12163;49.316;6.092;2024-02-28T02:10:35;99710.03;;;7.35;71.85
23953;BME280;12163;49.316;6.092;2024-02-28T02:13:08;99711.00;;;7.19;71.82
23953;BME280;12163;49.316;6.092;2024-02-28T02:15:34;99712.56;;;7.10;72.56
23953;BME280;12163;49.316;6.092;2024-02-28T02:18:01;99716.53;;;7.03;73.17
23953;BME280;12163;49.316;6.092;2024-02-28T02:20:30;99719.25;;;7.08;73.36
23953;BME280;12163;49.316;6.092;2024-02-28T02:22:59;99723.00;;;7.07;73.68
23953;BME280;12163;49.316;6.092;2024-02-28T02:25:26;99722.44;;;7.00;73.41
23953;BME280;12163;49.316;6.092;2024-02-28T02:27:52;99723.47;;;6.94;73.92
23953;BME280;12163;49.316;6.092;2024-02-28T02:30:19;99718.09;;;6.94;74.13
23953;BME280;12163;49.316;6.092;2024-02-28T02:32:46;99722.91;;;6.92;73.96
23953;BME280;12163;49.316;6.092;2024-02-28T02:35:13;99719.09;;;6.88;74.06
23953;BME280;12163;49.316;6.092;2024-02-28T02:37:43;99715.00;;;6.75;73.83
23953;BME280;12163;49.316;6.092;2024-02-28T02:40:12;99716.84;;;6.70;74.71
23953;BME280;12163;49.316;6.092;2024-02-28T02:42:38;99716.84;;;6.70;74.92
23953;BME280;12163;49.316;6.092;2024-02-28T02:45:05;99718.72;;;6.74;75.25
23953;BME280;12163;49.316;6.092;2024-02-28T02:47:32;99719.00;;;6.73;74.99
23953;BME280;12163;49.316;6.092;2024-02-28T02:49:59;99720.31;;;6.70;74.53
23953;BME280;12163;49.316;6.092;2024-02-28T02:52:25;99724.38;;;6.73;75.33
23953;BME280;12163;49.316;6.092;2024-02-28T02:54:52;99731.88;;;6.71;74.93
23953;BME280;12163;49.316;6.092;2024-02-28T02:57:19;99729.69;;;6.68;75.02
23953;BME280;12163;49.316;6.092;2024-02-28T02:59:46;99728.09;;;6.67;75.49
23953;BME280;12163;49.316;6.092;2024-02-28T03:02:12;99723.22;;;6.64;76.11
23953;BME280;12163;49.316;6.092;2024-02-28T03:04:39;99720.88;;;6.72;75.40
23953;BME280;12163;49.316;6.092;2024-02-28T03:07:06;99727.13;;;6.83;75.65
23953;BME280;12163;49.316;6.092;2024-02-28T03:09:32;99730.66;;;6.88;75.13
23953;BME280;12163;49.316;6.092;2024-02-28T03:12:00;99726.69;;;6.96;75.03
23953;BME280;12163;49.316;6.092;2024-02-28T03:14:26;99725.13;;;7.05;74.96
23953;BME280;12163;49.316;6.092;2024-02-28T03:16:53;99727.59;;;7.11;74.65
23953;BME280;12163;49.316;6.092;2024-02-28T03:19:20;99725.22;;;7.15;74.37
23953;BME280;12163;49.316;6.092;2024-02-28T03:21:47;99731.13;;;7.12;73.99
23953;BME280;12163;49.316;6.092;2024-02-28T03:24:13;99735.91;;;7.10;73.96
23953;BME280;12163;49.316;6.092;2024-02-28T03:26:40;99739.72;;;7.14;73.95
23953;BME280;12163;49.316;6.092;2024-02-28T03:29:07;99744.78;;;7.10;73.84
23953;BME280;12163;49.316;6.092;2024-02-28T03:31:33;99752.50;;;7.02;73.75
23953;BME280;12163;49.316;6.092;2024-02-28T03:34:00;99749.47;;;6.93;73.98
23953;BME280;12163;49.316;6.092;2024-02-28T03:36:28;99752.06;;;6.78;74.45
23953;BME280;12163;49.316;6.092;2024-02-28T03:38:55;99758.16;;;6.74;74.81
23953;BME280;12163;49.316;6.092;2024-02-28T03:41:21;99758.13;;;6.69;75.20
23953;BME280;12163;49.316;6.092;2024-02-28T03:43:48;99765.91;;;6.70;75.59
23953;BME280;12163;49.316;6.092;2024-02-28T03:46:15;99764.28;;;6.69;75.07
23953;BME280;12163;49.316;6.092;2024-02-28T03:48:41;99766.09;;;6.64;75.25
23953;BME280;12163;49.316;6.092;2024-02-28T03:51:08;99761.75;;;6.58;75.40
23953;BME280;12163;49.316;6.092;2024-02-28T03:53:35;99761.81;;;6.63;75.38
23953;BME280;12163;49.316;6.092;2024-02-28T03:56:01;99764.00;;;6.66;75.17
23953;BME280;12163;49.316;6.092;2024-02-28T03:58:29;99763.38;;;6.59;75.28
23953;BME280;12163;49.316;6.092;2024-02-28T04:00:56;99765.28;;;6.59;75.40
23953;BME280;12163;49.316;6.092;2024-02-28T04:03:22;99765.03;;;6.65;75.79
23953;BME280;12163;49.316;6.092;2024-02-28T04:05:49;99767.00;;;6.74;75.59
23953;BME280;12163;49.316;6.092;2024-02-28T04:08:15;99773.22;;;6.80;75.48
23953;BME280;12163;49.316;6.092;2024-02-28T04:10:42;99768.41;;;6.82;75.19
23953;BME280;12163;49.316;6.092;2024-02-28T04:13:09;99778.13;;;6.88;75.22
23953;BME280;12163;49.316;6.092;2024-02-28T04:15:35;99775.50;;;6.93;74.85
23953;BME280;12163;49.316;6.092;2024-02-28T04:18:04;99784.09;;;6.95;74.67
23953;BME280;12163;49.316;6.092;2024-02-28T04:20:31;99789.47;;;6.95;74.57
23953;BME280;12163;49.316;6.092;2024-02-28T04:22:57;99789.72;;;6.93;74.71
23953;BME280;12163;49.316;6.092;2024-02-28T04:25:24;99780.25;;;6.86;74.87
23953;BME280;12163;49.316;6.092;2024-02-28T04:27:51;99784.22;;;6.78;75.07
23953;BME280;12163;49.316;6.092;2024-02-28T04:30:17;99786.66;;;6.80;75.13
23953;BME280;12163;49.316;6.092;2024-02-28T04:32:44;99784.00;;;6.85;74.97
23953;BME280;12163;49.316;6.092;2024-02-28T04:35:11;99796.31;;;6.81;74.74
23953;BME280;12163;49.316;6.092;2024-02-28T04:37:38;99790.91;;;6.76;74.63
23953;BME280;12163;49.316;6.092;2024-02-28T04:40:05;99787.16;;;6.77;74.86
23953;BME280;12163;49.316;6.092;2024-02-28T04:42:33;99786.13;;;6.83;75.06
23953;BME280;12163;49.316;6.092;2024-02-28T04:44:59;99779.97;;;6.82;74.41
23953;BME280;12163;49.316;6.092;2024-02-28T04:47:26;99788.53;;;6.79;74.64
23953;BME280;12163;49.316;6.092;2024-02-28T04:50:05;99798.59;;;6.67;74.15
23953;BME280;12163;49.316;6.092;2024-02-28T04:52:33;99790.72;;;6.56;75.26
23953;BME280;12163;49.316;6.092;2024-02-28T04:55:00;99803.47;;;6.44;75.14
23953;BME280;12163;49.316;6.092;2024-02-28T04:57:27;99804.41;;;6.33;75.49
23953;BME280;12163;49.316;6.092;2024-02-28T04:59:54;99805.22;;;6.34;76.56
23953;BME280;12163;49.316;6.092;2024-02-28T05:02:20;99806.88;;;6.40;76.23
23953;BME280;12163;49.316;6.092;2024-02-28T05:04:52;99801.34;;;6.46;76.13
23953;BME280;12163;49.316;6.092;2024-02-28T05:07:18;99803.00;;;6.52;76.20
23953;BME280;12163;49.316;6.092;2024-02-28T05:09:45;99818.06;;;6.58;75.49
23953;BME280;12163;49.316;6.092;2024-02-28T05:12:12;99822.88;;;6.56;75.35
23953;BME280;12163;49.316;6.092;2024-02-28T05:14:39;99815.84;;;6.50;75.34
23953;BME280;12163;49.316;6.092;2024-02-28T05:17:05;99810.91;;;6.42;75.15
23953;BME280;12163;49.316;6.092;2024-02-28T05:19:32;99811.69;;;6.38;75.29
23953;BME280;12163;49.316;6.092;2024-02-28T05:21:58;99823.72;;;6.35;75.39
23953;BME280;12163;49.316;6.092;2024-02-28T05:24:27;99822.16;;;6.39;76.24
23953;BME280;12163;49.316;6.092;2024-02-28T05:26:54;99816.91;;;6.49;75.68
23953;BME280;12163;49.316;6.092;2024-02-28T05:29:20;99818.22;;;6.47;75.54
23953;BME280;12163;49.316;6.092;2024-02-28T05:31:47;99831.31;;;6.43;75.46
23953;BME280;12163;49.316;6.092;2024-02-28T05:34:13;99826.66;;;6.34;75.16
23953;BME280;12163;49.316;6.092;2024-02-28T05:36:40;99842.66;;;6.29;75.63
23953;BME280;12163;49.316;6.092;2024-02-28T05:39:07;99841.38;;;6.31;75.71
23953;BME280;12163;49.316;6.092;2024-02-28T05:41:34;99846.22;;;6.34;75.48
23953;BME280;12163;49.316;6.092;2024-02-28T05:44:01;99847.03;;;6.35;75.92
23953;BME280;12163;49.316;6.092;2024-02-28T05:46:27;99849.41;;;6.31;75.34
23953;BME280;12163;49.316;6.092;2024-02-28T05:48:54;99849.44;;;6.84;80.60
23953;BME280;12163;49.316;6.092;2024-02-28T05:51:21;99847.59;;;7.47;80.97
23953;BME280;12163;49.316;6.092;2024-02-28T05:53:49;99852.44;;;7.97;73.32
23953;BME280;12163;49.316;6.092;2024-02-28T05:56:15;99855.53;;;8.15;74.42
23953;BME280;12163;49.316;6.092;2024-02-28T05:58:44;99859.91;;;8.31;71.32
23953;BME280;12163;49.316;6.092;2024-02-28T06:01:13;99860.28;;;8.64;71.26
23953;BME280;12163;49.316;6.092;2024-02-28T06:03:41;99853.34;;;8.83;69.49
23953;BME280;12163;49.316;6.092;2024-02-28T06:06:07;99869.28;;;9.15;71.98
23953;BME280;12163;49.316;6.092;2024-02-28T06:08:39;99865.25;;;9.77;70.51
23953;BME280;12163;49.316;6.092;2024-02-28T06:11:07;99862.91;;;10.39;67.92
23953;BME280;12163;49.316;6.092;2024-02-28T06:13:34;99860.84;;;10.79;62.99
23953;BME280;12163;49.316;6.092;2024-02-28T06:16:00;99869.38;;;10.43;60.13
23953;BME280;12163;49.316;6.092;2024-02-28T06:18:29;99894.31;;;9.75;60.98
23953;BME280;12163;49.316;6.092;2024-02-28T06:21:00;99897.03;;;9.10;63.04
23953;BME280;12163;49.316;6.092;2024-02-28T06:23:27;99900.94;;;8.68;64.40
23953;BME280;12163;49.316;6.092;2024-02-28T06:25:56;99903.22;;;8.34;65.90
23953;BME280;12163;49.316;6.092;2024-02-28T06:28:23;99916.47;;;8.05;66.38
23953;BME280;12163;49.316;6.092;2024-02-28T06:30:49;99918.16;;;7.74;67.51
23953;BME280;12163;49.316;6.092;2024-02-28T06:33:16;99915.53;;;7.53;68.66
23953;BME280;12163;49.316;6.092;2024-02-28T06:35:43;99922.94;;;7.36;69.89
23953;BME280;12163;49.316;6.092;2024-02-28T06:38:09;99926.84;;;7.23;70.05
23953;BME280;12163;49.316;6.092;2024-02-28T06:40:36;99927.56;;;7.14;70.81
23953;BME280;12163;49.316;6.092;2024-02-28T06:43:03;99934.94;;;7.02;70.88
23953;BME280;12163;49.316;6.092;2024-02-28T06:45:30;99932.19;;;6.97;71.02
23953;BME280;12163;49.316;6.092;2024-02-28T06:47:57;99936.47;;;6.93;70.84
23953;BME280;12163;49.316;6.092;2024-02-28T06:50:24;99934.84;;;6.92;71.86
23953;BME280;12163;49.316;6.092;2024-02-28T06:52:51;99927.34;;;6.94;71.45
23953;BME280;12163;49.316;6.092;2024-02-28T06:55:20;99935.91;;;6.91;71.89
23953;BME280;12163;49.316;6.092;2024-02-28T06:57:47;99934.19;;;6.85;72.12
23953;BME280;12163;49.316;6.092;2024-02-28T07:00:14;99934.16;;;6.80;72.33
23953;BME280;12163;49.316;6.092;2024-02-28T07:02:42;99938.47;;;6.81;72.34
23953;BME280;12163;49.316;6.092;2024-02-28T07:05:09;99939.97;;;6.72;72.68
23953;BME280;12163;49.316;6.092;2024-02-28T07:07:36;99934.06;;;6.70;72.36
23953;BME280;12163;49.316;6.092;2024-02-28T07:10:03;99939.34;;;6.65;72.96
23953;BME280;12163;49.316;6.092;2024-02-28T07:12:31;99938.72;;;6.58;73.12
23953;BME280;12163;49.316;6.092;2024-02-28T07:14:58;99946.94;;;6.52;74.05
23953;BME280;12163;49.316;6.092;2024-02-28T07:17:25;99947.22;;;6.50;73.95
23953;BME280;12163;49.316;6.092;2024-02-28T07:19:51;99942.34;;;6.47;73.51
23953;BME280;12163;49.316;6.092;2024-02-28T07:22:18;99960.16;;;6.37;73.67
23953;BME280;12163;49.316;6.092;2024-02-28T07:24:45;99951.75;;;6.28;74.69
23953;BME280;12163;49.316;6.092;2024-02-28T07:27:11;99952.16;;;6.20;74.37
23953;BME280;12163;49.316;6.092;2024-02-28T07:29:38;99947.28;;;6.17;75.27
23953;BME280;12163;49.316;6.092;2024-02-28T07:32:05;99956.38;;;6.16;74.75
23953;BME280;12163;49.316;6.092;2024-02-28T07:34:31;99946.66;;;6.10;75.00
23953;BME280;12163;49.316;6.092;2024-02-28T07:36:58;99947.94;;;6.08;75.78
23953;BME280;12163;49.316;6.092;2024-02-28T07:39:25;99950.91;;;6.06;76.00
23953;BME280;12163;49.316;6.092;2024-02-28T07:41:52;99930.66;;;6.15;76.35
23953;BME280;12163;49.316;6.092;2024-02-28T07:44:22;99943.06;;;6.21;75.39
23953;BME280;12163;49.316;6.092;2024-02-28T07:46:49;99951.59;;;6.18;74.38
23953;BME280;12163;49.316;6.092;2024-02-28T07:49:17;99953.13;;;6.14;75.05
23953;BME280;12163;49.316;6.092;2024-02-28T07:51:45;99968.03;;;6.05;74.97
23953;BME280;12163;49.316;6.092;2024-02-28T07:54:12;99958.53;;;5.98;75.43
23953;BME280;12163;49.316;6.092;2024-02-28T07:56:38;99957.25;;;6.00;75.97
23953;BME280;12163;49.316;6.092;2024-02-28T07:59:05;99948.78;;;6.08;76.25
23953;BME280;12163;49.316;6.092;2024-02-28T08:01:32;99956.66;;;6.15;75.89
23953;BME280;12163;49.316;6.092;2024-02-28T08:04:00;99946.50;;;6.17;75.50
23953;BME280;12163;49.316;6.092;2024-02-28T08:06:28;99961.75;;;6.16;75.48
23953;BME280;12163;49.316;6.092;2024-02-28T08:08:55;99963.06;;;6.14;75.87
23953;BME280;12163;49.316;6.092;2024-02-28T08:11:22;99962.72;;;6.10;75.49
23953;BME280;12163;49.316;6.092;2024-02-28T08:13:49;99968.25;;;6.04;75.66
23953;BME280;12163;49.316;6.092;2024-02-28T08:16:16;99972.97;;;5.97;75.53
23953;BME280;12163;49.316;6.092;2024-02-28T08:18:43;99980.69;;;5.93;75.92
23953;BME280;12163;49.316;6.092;2024-02-28T08:21:09;99983.38;;;5.93;76.79
23953;BME280;12163;49.316;6.092;2024-02-28T08:23:36;99984.50;;;5.97;76.66
23953;BME280;12163;49.316;6.092;2024-02-28T08:26:02;99982.97;;;6.01;76.88
23953;BME280;12163;49.316;6.092;2024-02-28T08:28:30;99983.03;;;6.06;76.18
23953;BME280;12163;49.316;6.092;2024-02-28T08:30:58;99988.53;;;6.16;75.98
23953;BME280;12163;49.316;6.092;2024-02-28T08:33:24;99983.25;;;6.21;75.64
23953;BME280;12163;49.316;6.092;2024-02-28T08:35:51;99981.72;;;6.25;75.42
23953;BME280;12163;49.316;6.092;2024-02-28T08:38:18;99984.47;;;6.30;75.31
23953;BME280;12163;49.316;6.092;2024-02-28T08:40:45;99978.03;;;6.31;75.57
23953;BME280;12163;49.316;6.092;2024-02-28T08:43:12;99977.47;;;6.29;74.60
23953;BME280;12163;49.316;6.092;2024-02-28T08:45:39;99974.31;;;6.32;75.41
23953;BME280;12163;49.316;6.092;2024-02-28T08:48:07;99969.34;;;6.41;75.47
23953;BME280;12163;49.316;6.092;2024-02-28T08:50:34;99973.03;;;6.56;75.02
23953;BME280;12163;49.316;6.092;2024-02-28T08:53:01;99975.34;;;6.69;74.92
23953;BME280;12163;49.316;6.092;2024-02-28T08:55:28;99979.19;;;6.78;74.47
23953;BME280;12163;49.316;6.092;2024-02-28T08:57:55;99981.38;;;6.81;73.82
23953;BME280;12163;49.316;6.092;2024-02-28T09:00:22;99982.50;;;6.85;74.07
23953;BME280;12163;49.316;6.092;2024-02-28T09:02:49;99975.13;;;6.97;74.87
23953;BME280;12163;49.316;6.092;2024-02-28T09:05:16;99990.25;;;7.08;73.63
23953;BME280;12163;49.316;6.092;2024-02-28T09:07:42;99994.09;;;7.12;72.80
23953;BME280;12163;49.316;6.092;2024-02-28T09:10:09;99985.81;;;7.18;73.28
23953;BME280;12163;49.316;6.092;2024-02-28T09:12:37;99999.25;;;7.18;72.30
23953;BME280;12163;49.316;6.092;2024-02-28T09:15:05;99998.44;;;7.18;73.00
23953;BME280;12163;49.316;6.092;2024-02-28T09:17:31;100006.03;;;7.26;72.85
23953;BME280;12163;49.316;6.092;2024-02-28T09:19:58;100006.03;;;7.26;73.20
23953;BME280;12163;49.316;6.092;2024-02-28T09:22:27;100003.91;;;7.28;72.05
23953;BME280;12163;49.316;6.092;2024-02-28T09:24:54;100011.41;;;7.26;71.79
23953;BME280;12163;49.316;6.092;2024-02-28T09:27:21;100008.34;;;7.17;72.09
23953;BME280;12163;49.316;6.092;2024-02-28T09:29:48;100014.00;;;7.16;72.85
23953;BME280;12163;49.316;6.092;2024-02-28T09:32:14;100018.34;;;7.22;72.73
23953;BME280;12163;49.316;6.092;2024-02-28T09:34:41;100012.22;;;7.26;71.99
23953;BME280;12163;49.316;6.092;2024-02-28T09:37:08;100009.59;;;7.31;72.32
23953;BME280;12163;49.316;6.092;2024-02-28T09:39:38;100009.41;;;7.38;72.30
23953;BME280;12163;49.316;6.092;2024-02-28T09:42:06;100016.91;;;7.36;71.85
23953;BME280;12163;49.316;6.092;2024-02-28T09:44:34;100022.34;;;7.19;71.90
23953;BME280;12163;49.316;6.092;2024-02-28T09:47:01;100026.44;;;7.00;72.49
23953;BME280;12163;49.316;6.092;2024-02-28T09:49:28;100017.56;;;7.00;73.01
23953;BME280;12163;49.316;6.092;2024-02-28T09:51:59;100025.56;;;6.95;73.23
23953;BME280;12163;49.316;6.092;2024-02-28T09:54:26;100038.25;;;6.83;72.99
23953;BME280;12163;49.316;6.092;2024-02-28T09:56:53;100029.28;;;6.72;73.75
23953;BME280;12163;49.316;6.092;2024-02-28T09:59:20;100033.41;;;6.80;74.79
23953;BME280;12163;49.316;6.092;2024-02-28T10:01:57;100037.19;;;6.84;73.82
23953;BME280;12163;49.316;6.092;2024-02-28T10:04:26;100043.88;;;6.81;74.03
23953;BME280;12163;49.316;6.092;2024-02-28T10:06:54;100050.09;;;6.87;74.04
23953;BME280;12163;49.316;6.092;2024-02-28T10:09:20;100056.13;;;6.94;73.97
23953;BME280;12163;49.316;6.092;2024-02-28T10:11:47;100063.16;;;7.00;73.48
23953;BME280;12163;49.316;6.092;2024-02-28T10:14:17;100067.47;;;7.01;73.48
23953;BME280;12163;49.316;6.092;2024-02-28T10:16:45;100069.22;;;7.12;73.69
23953;BME280;12163;49.316;6.092;2024-02-28T10:19:12;100057.53;;;7.23;73.19
23953;BME280;12163;49.316;6.092;2024-02-28T10:21:39;100062.25;;;7.37;73.25
23953;BME280;12163;49.316;6.092;2024-02-28T10:24:06;100060.88;;;7.56;72.06
23953;BME280;12163;49.316;6.092;2024-02-28T10:26:32;100052.34;;;7.64;70.85
23953;BME280;12163;49.316;6.092;2024-02-28T10:29:05;100056.97;;;7.69;70.79
23953;BME280;12163;49.316;6.092;2024-02-28T10:31:35;100050.91;;;7.83;70.98
23953;BME280;12163;49.316;6.092;2024-02-28T10:34:02;100050.13;;;7.83;70.10
23953;BME280;12163;49.316;6.092;2024-02-28T10:36:32;100063.09;;;7.91;70.25
23953;BME280;12163;49.316;6.092;2024-02-28T10:39:00;100059.38;;;7.97;70.06
23953;BME280;12163;49.316;6.092;2024-02-28T10:41:28;100064.28;;;8.05;69.53
23953;BME280;12163;49.316;6.092;2024-02-28T10:43:55;100069.16;;;8.08;69.86
23953;BME280;12163;49.316;6.092;2024-02-28T10:46:21;100060.31;;;8.12;69.38
23953;BME280;12163;49.316;6.092;2024-02-28T10:49:02;100059.91;;;8.25;69.33
23953;BME280;12163;49.316;6.092;2024-02-28T10:51:35;100058.63;;;8.32;69.55
23953;BME280;12163;49.316;6.092;2024-02-28T10:54:10;100061.88;;;8.39;68.95
23953;BME280;12163;49.316;6.092;2024-02-28T10:56:39;100054.97;;;8.48;68.96
23953;BME280;12163;49.316;6.092;2024-02-28T10:59:11;100053.91;;;8.49;67.93
23953;BME280;12163;49.316;6.092;2024-02-28T11:01:41;100049.59;;;8.48;68.48
23953;BME280;12163;49.316;6.092;2024-02-28T11:04:10;100053.94;;;8.54;67.93
23953;BME280;12163;49.316;6.092;2024-02-28T11:06:51;100046.97;;;8.63;67.91
23953;BME280;12163;49.316;6.092;2024-02-28T11:09:22;100049.66;;;8.58;67.73
23953;BME280;12163;49.316;6.092;2024-02-28T11:11:55;100045.88;;;8.59;67.79
23953;BME280;12163;49.316;6.092;2024-02-28T11:14:22;100052.34;;;8.58;67.17
23953;BME280;12163;49.316;6.092;2024-02-28T11:17:02;100044.28;;;8.58;67.78
23953;BME280;12163;49.316;6.092;2024-02-28T11:19:30;100042.44;;;8.69;67.14
23953;BME280;12163;49.316;6.092;2024-02-28T11:22:02;100053.50;;;8.67;67.12
23953;BME280;12163;49.316;6.092;2024-02-28T11:24:31;100053.50;;;8.72;67.79
23953;BME280;12163;49.316;6.092;2024-02-28T11:26:59;100053.22;;;8.74;67.54
23953;BME280;12163;49.316;6.092;2024-02-28T11:29:27;100056.72;;;8.69;67.59
23953;BME280;12163;49.316;6.092;2024-02-28T11:31:55;100046.50;;;8.66;67.30
23953;BME280;12163;49.316;6.092;2024-02-28T11:34:21;100036.81;;;8.70;68.02
23953;BME280;12163;49.316;6.092;2024-02-28T11:36:50;100035.25;;;8.84;67.48
23953;BME280;12163;49.316;6.092;2024-02-28T11:39:17;100043.16;;;9.01;66.88
23953;BME280;12163;49.316;6.092;2024-02-28T11:41:45;100037.50;;;9.07;66.21
23953;BME280;12163;49.316;6.092;2024-02-28T11:44:16;100049.09;;;9.08;66.22
23953;BME280;12163;49.316;6.092;2024-02-28T11:46:52;100036.19;;;9.10;66.76
23953;BME280;12163;49.316;6.092;2024-02-28T11:49:19;100032.44;;;9.16;66.51
23953;BME280;12163;49.316;6.092;2024-02-28T11:51:46;100041.66;;;9.35;66.36
23953;BME280;12163;49.316;6.092;2024-02-28T11:54:13;100037.41;;;9.54;65.48
23953;BME280;12163;49.316;6.092;2024-02-28T11:56:40;100026.13;;;9.77;65.30
23953;BME280;12163;49.316;6.092;2024-02-28T11:59:08;100029.09;;;9.85;64.37
23953;BME280;12163;49.316;6.092;2024-02-28T12:01:43;100021.28;;;9.89;63.48
23953;BME280;12163;49.316;6.092;2024-02-28T12:04:13;100029.91;;;9.91;63.59
23953;BME280;12163;49.316;6.092;2024-02-28T12:06:40;100031.25;;;9.98;63.92
23953;BME280;12163;49.316;6.092;2024-02-28T12:09:09;100024.53;;;10.05;64.29
23953;BME280;12163;49.316;6.092;2024-02-28T12:11:36;100025.88;;;10.18;63.72
23953;BME280;12163;49.316;6.092;2024-02-28T12:14:04;100020.47;;;10.33;62.53
23953;BME280;12163;49.316;6.092;2024-02-28T12:16:33;100019.38;;;10.39;63.08
23953;BME280;12163;49.316;6.092;2024-02-28T12:19:00;100015.06;;;10.43;62.39
23953;BME280;12163;49.316;6.092;2024-02-28T12:21:26;100014.22;;;10.52;62.21
23953;BME280;12163;49.316;6.092;2024-02-28T12:23:53;100008.84;;;10.52;61.41
23953;BME280;12163;49.316;6.092;2024-02-28T12:26:22;100005.31;;;10.67;61.68
23953;BME280;12163;49.316;6.092;2024-02-28T12:28:49;100007.16;;;10.81;61.28
23953;BME280;12163;49.316;6.092;2024-02-28T12:31:16;99998.75;;;10.83;61.89
23953;BME280;12163;49.316;6.092;2024-02-28T12:33:42;100000.84;;;11.01;61.44
23953;BME280;12163;49.316;6.092;2024-02-28T12:36:09;99992.16;;;11.09;60.54
23953;BME280;12163;49.316;6.092;2024-02-28T12:38:36;100000.25;;;11.09;60.22
23953;BME280;12163;49.316;6.092;2024-02-28T12:41:03;99997.81;;;11.12;60.69
23953;BME280;12163;49.316;6.092;2024-02-28T12:43:30;99986.75;;;11.09;60.96
23953;BME280;12163;49.316;6.092;2024-02-28T12:45:58;99992.69;;;11.16;61.20
23953;BME280;12163;49.316;6.092;2024-02-28T12:48:26;99987.22;;;11.26;60.51
23953;BME280;12163;49.316;6.092;2024-02-28T12:50:52;99982.84;;;11.35;60.24
23953;BME280;12163;49.316;6.092;2024-02-28T12:53:19;99990.31;;;11.48;60.03
23953;BME280;12163;49.316;6.092;2024-02-28T12:55:45;99981.13;;;11.59;59.38
23953;BME280;12163;49.316;6.092;2024-02-28T12:58:12;99981.59;;;11.66;59.04
23953;BME280;12163;49.316;6.092;2024-02-28T13:00:39;99977.31;;;11.60;59.51
23953;BME280;12163;49.316;6.092;2024-02-28T13:03:08;99978.84;;;11.71;59.33
23953;BME280;12163;49.316;6.092;2024-02-28T13:05:35;99972.84;;;11.78;59.20
23953;BME280;12163;49.316;6.092;2024-02-28T13:08:02;99976.19;;;11.66;58.73